createdAt,value
2017-11-14T00:00:34.583Z,164.82
2017-11-14T00:03:02.038Z,207.50
2017-11-14T00:05:29.495Z,258.02
2017-11-14T00:07:56.951Z,104.10
2017-11-14T00:10:24.435Z,76.50
2017-11-14T00:12:51.896Z,84.72
2017-11-14T00:15:19.455Z,157.88
2017-11-14T00:17:46.910Z,128.20
2017-11-14T00:20:14.366Z,81.60
2017-11-14T00:22:41.923Z,112.20
2017-11-14T00:25:09.482Z,187.50
2017-11-14T00:27:36.946Z,324.17
2017-11-14T00:30:05.168Z,286.05
2017-11-14T00:32:32.639Z,138.60
2017-11-14T00:35:00.104Z,319.87
2017-11-14T00:37:27.558Z,270.83
2017-11-14T00:39:55.024Z,264.98
2017-11-14T00:42:22.491Z,149.62
2017-11-14T00:44:49.955Z,177.07
2017-11-14T00:47:17.455Z,198.38
2017-11-14T00:49:45.678Z,377.52
2017-11-14T00:52:13.137Z,235.05
2017-11-14T00:54:40.599Z,268.85
2017-11-14T00:57:08.051Z,262.88
2017-11-14T00:59:35.515Z,160.23
2017-11-14T01:02:02.974Z,202.10
2017-11-14T01:04:30.439Z,279.17
2017-11-14T01:06:57.891Z,275.73
2017-11-14T01:09:25.447Z,246.95
2017-11-14T01:11:52.898Z,224.45
2017-11-14T01:14:20.377Z,191.77
2017-11-14T01:16:47.827Z,257.48
2017-11-14T01:19:15.296Z,333.77
2017-11-14T01:21:42.751Z,339.80
2017-11-14T01:24:11.007Z,296.05
2017-11-14T01:26:38.466Z,290.60
2017-11-14T01:29:05.933Z,328.17
2017-11-14T01:31:33.472Z,385.40
2017-11-14T01:34:00.939Z,399.73
2017-11-14T01:36:28.383Z,289.10
2017-11-14T01:38:55.846Z,383.15
2017-11-14T01:41:23.295Z,386.90
2017-11-14T01:43:50.763Z,275.62
2017-11-14T01:46:18.211Z,326.70
2017-11-14T01:48:45.658Z,130.30
2017-11-14T01:51:13.130Z,185.55
2017-11-14T01:53:40.581Z,200.02
2017-11-14T01:56:08.042Z,213.70
2017-11-14T01:58:35.499Z,295.25
2017-11-14T02:01:03.734Z,375.60
2017-11-14T02:03:31.187Z,348.52
2017-11-14T02:05:58.649Z,309.37
2017-11-14T02:08:26.094Z,281.00
2017-11-14T02:10:53.562Z,338.90
2017-11-14T02:13:21.024Z,314.23
2017-11-14T02:15:48.479Z,271.05
2017-11-14T02:18:15.958Z,181.90
2017-11-14T02:20:43.387Z,251.98
2017-11-14T02:23:10.881Z,134.82
2017-11-14T02:25:38.333Z,216.50
2017-11-14T02:28:05.787Z,245.63
2017-11-14T02:30:33.243Z,249.18
2017-11-14T02:33:00.710Z,307.75
2017-11-14T02:35:28.265Z,343.42
2017-11-14T02:37:55.718Z,157.15
2017-11-14T02:40:23.176Z,170.87
2017-11-14T02:42:50.631Z,149.60
2017-11-14T02:45:18.123Z,114.03
2017-11-14T02:47:46.361Z,185.20
2017-11-14T02:50:13.822Z,190.45
2017-11-14T02:52:41.284Z,198.90
2017-11-14T02:55:08.844Z,161.12
2017-11-14T02:57:37.823Z,160.85
2017-11-14T03:00:05.393Z,135.00
2017-11-14T03:02:32.863Z,107.82
2017-11-14T03:05:01.081Z,116.90
2017-11-14T03:07:28.575Z,117.00
2017-11-14T03:09:56.030Z,131.95
2017-11-14T03:12:23.497Z,121.47
2017-11-14T03:14:52.451Z,97.78
2017-11-14T03:17:19.914Z,113.25
2017-11-14T03:19:47.368Z,131.65
2017-11-14T03:22:14.834Z,104.28
2017-11-14T03:24:42.295Z,133.05
2017-11-14T03:27:10.754Z,116.60
2017-11-14T03:29:38.263Z,95.57
2017-11-14T03:32:05.729Z,90.28
2017-11-14T03:34:33.949Z,79.82
2017-11-14T03:37:01.407Z,69.55
2017-11-14T03:39:28.862Z,67.90
2017-11-14T03:41:56.321Z,75.93
2017-11-14T03:44:23.777Z,62.03
2017-11-14T03:46:52.289Z,62.95
2017-11-14T03:49:19.843Z,72.80
2017-11-14T03:51:47.304Z,60.25
2017-11-14T03:54:14.763Z,66.47
2017-11-14T03:56:42.214Z,51.63
2017-11-14T03:59:09.674Z,70.35
2017-11-14T04:01:37.128Z,86.63
2017-11-14T04:04:04.683Z,92.10
2017-11-14T04:06:32.248Z,82.25
2017-11-14T04:08:59.719Z,108.25
2017-11-14T04:11:27.169Z,91.35
2017-11-14T04:13:54.635Z,109.75
2017-11-14T04:16:22.083Z,78.90
2017-11-14T04:18:49.548Z,103.28
2017-11-14T04:21:17.083Z,138.32
2017-11-14T04:23:44.542Z,130.98
2017-11-14T04:26:11.998Z,149.48
2017-11-14T04:28:39.501Z,145.35
2017-11-14T04:31:06.959Z,184.48
2017-11-14T04:33:34.410Z,197.48
2017-11-14T04:36:02.643Z,232.82
2017-11-14T04:38:30.102Z,180.98
2017-11-14T04:40:57.584Z,159.82
2017-11-14T04:43:25.031Z,162.50
2017-11-14T04:45:54.007Z,156.60
2017-11-14T04:48:21.456Z,132.63
2017-11-14T04:50:48.917Z,113.72
2017-11-14T04:53:16.376Z,97.28
2017-11-14T04:55:43.834Z,89.30
2017-11-14T04:58:11.292Z,73.60
2017-11-14T05:00:38.841Z,78.97
2017-11-14T05:03:06.411Z,72.85
2017-11-14T05:05:35.715Z,90.35
2017-11-14T05:08:03.165Z,73.62
2017-11-14T05:10:30.632Z,61.85
2017-11-14T05:12:58.082Z,78.22
2017-11-14T05:15:25.542Z,71.35
2017-11-14T05:17:52.999Z,77.12
2017-11-14T05:20:20.451Z,80.00
2017-11-14T05:22:47.915Z,73.57
2017-11-14T05:25:18.239Z,75.62
2017-11-14T05:27:45.698Z,78.43
2017-11-14T05:30:13.151Z,74.30
2017-11-14T05:32:40.612Z,83.55
2017-11-14T05:35:08.063Z,74.78
2017-11-14T05:37:35.522Z,77.82
2017-11-14T05:40:02.967Z,84.18
2017-11-14T05:42:30.430Z,73.72
2017-11-14T05:44:57.891Z,56.72
2017-11-14T05:47:25.439Z,67.00
2017-11-14T05:49:52.998Z,71.80
2017-11-14T05:54:55.059Z,47.72
2017-11-14T05:57:22.509Z,53.33
2017-11-14T05:59:49.975Z,70.40
2017-11-14T06:02:17.444Z,69.70
2017-11-14T06:04:44.888Z,98.22
2017-11-14T06:07:12.343Z,96.65
2017-11-14T06:09:39.807Z,81.50
2017-11-14T06:12:07.268Z,84.72
2017-11-14T06:14:34.738Z,103.62
2017-11-14T06:17:02.194Z,101.93
2017-11-14T06:19:29.654Z,90.97
2017-11-14T06:21:57.199Z,97.70
2017-11-14T06:24:24.756Z,103.00
2017-11-14T06:26:52.206Z,123.65
2017-11-14T06:29:19.660Z,107.75
2017-11-14T06:31:47.118Z,140.35
2017-11-14T06:34:14.573Z,86.57
2017-11-14T06:36:42.038Z,109.05
2017-11-14T06:39:09.486Z,90.68
2017-11-14T06:41:37.059Z,79.37
2017-11-14T06:44:04.507Z,83.28
2017-11-14T06:46:32.076Z,86.43
2017-11-14T06:48:59.514Z,82.57
2017-11-14T06:51:26.977Z,90.05
2017-11-14T06:53:54.428Z,104.40
2017-11-14T06:56:21.893Z,88.90
2017-11-14T06:58:49.343Z,73.82
2017-11-14T07:01:16.802Z,107.68
2017-11-14T07:03:44.245Z,85.72
2017-11-14T07:06:11.859Z,87.62
2017-11-14T07:08:40.074Z,87.88
2017-11-14T07:11:07.535Z,78.32
2017-11-14T07:13:34.984Z,86.15
2017-11-14T07:16:02.473Z,70.95
2017-11-14T07:18:30.042Z,93.30
2017-11-14T07:20:57.495Z,75.75
2017-11-14T07:23:24.946Z,177.70
2017-11-14T07:25:52.425Z,150.95
2017-11-14T07:28:19.878Z,113.82
2017-11-14T07:30:47.336Z,102.07
2017-11-14T07:33:14.796Z,114.35
2017-11-14T07:35:42.249Z,156.27
2017-11-14T07:38:09.711Z,139.62
2017-11-14T07:40:37.930Z,174.82
2017-11-14T07:43:05.387Z,256.23
2017-11-14T07:45:32.839Z,281.58
2017-11-14T07:48:00.331Z,221.23
2017-11-14T07:50:27.782Z,205.57
2017-11-14T07:52:55.238Z,342.50
2017-11-14T07:55:22.802Z,203.50
2017-11-14T07:57:50.264Z,249.07
2017-11-14T08:00:17.704Z,249.10
2017-11-14T08:02:45.162Z,216.00
2017-11-14T08:05:12.615Z,175.27
2017-11-14T08:07:40.183Z,146.05
2017-11-14T08:10:07.639Z,227.15
2017-11-14T08:12:35.123Z,169.30
2017-11-14T08:15:02.581Z,139.15
2017-11-14T08:17:30.807Z,116.10
2017-11-14T08:19:58.267Z,132.50
2017-11-14T08:22:25.718Z,114.00
2017-11-14T08:24:53.182Z,120.45
2017-11-14T08:27:20.630Z,97.85
2017-11-14T08:29:48.089Z,92.40
2017-11-14T08:32:15.541Z,96.55
2017-11-14T08:34:42.998Z,86.78
2017-11-14T08:37:10.459Z,64.55
2017-11-14T08:39:37.915Z,62.62
2017-11-14T08:42:05.372Z,59.25
2017-11-14T08:44:32.830Z,46.63
2017-11-14T08:47:00.290Z,45.30
2017-11-14T08:49:27.753Z,54.75
2017-11-14T08:51:55.224Z,45.53
2017-11-14T08:54:22.693Z,41.22
2017-11-14T08:56:50.243Z,35.22
2017-11-14T08:59:17.696Z,38.00
2017-11-14T09:01:45.146Z,47.90
2017-11-14T09:04:12.602Z,42.67
2017-11-14T09:06:40.050Z,37.22
2017-11-14T09:09:07.500Z,38.55
2017-11-14T09:11:34.954Z,49.20
2017-11-14T09:14:02.408Z,50.33
2017-11-14T09:16:29.861Z,43.38
2017-11-14T09:18:57.320Z,43.50
2017-11-14T09:21:24.798Z,46.67
2017-11-14T09:23:52.247Z,47.05
2017-11-14T09:26:19.711Z,40.75
2017-11-14T09:28:47.159Z,39.92
2017-11-14T09:31:14.614Z,36.80
2017-11-14T09:33:42.058Z,39.17
2017-11-14T09:36:09.516Z,35.15
2017-11-14T09:38:36.971Z,41.55
2017-11-14T09:41:04.437Z,38.88
2017-11-14T09:43:31.915Z,36.45
2017-11-14T09:45:59.370Z,32.90
2017-11-14T09:48:26.818Z,34.80
2017-11-14T09:50:54.281Z,37.05
2017-11-14T09:53:21.826Z,34.63
2017-11-14T09:55:49.318Z,38.80
2017-11-14T09:58:16.770Z,40.70
2017-11-14T10:00:44.318Z,33.83
2017-11-14T10:03:11.771Z,37.28
2017-11-14T10:05:39.222Z,36.70
2017-11-14T10:08:06.710Z,34.67
2017-11-14T10:10:34.162Z,29.37
2017-11-14T10:13:01.624Z,46.55
2017-11-14T10:15:29.154Z,35.90
2017-11-14T10:17:56.614Z,29.27
2017-11-14T10:20:24.062Z,31.95
2017-11-14T10:22:51.631Z,33.05
2017-11-14T10:25:19.083Z,34.17
2017-11-14T10:27:46.544Z,33.65
2017-11-14T10:30:13.997Z,33.05
2017-11-14T10:32:41.464Z,33.88
2017-11-14T10:35:09.015Z,32.05
2017-11-14T10:37:36.683Z,33.55
2017-11-14T10:40:04.131Z,31.87
2017-11-14T10:42:31.722Z,31.52
2017-11-14T10:44:59.970Z,25.00
2017-11-14T10:47:27.432Z,23.85
2017-11-14T10:49:54.983Z,28.30
2017-11-14T10:52:22.448Z,19.35
2017-11-14T10:54:50.003Z,16.67
2017-11-14T10:57:17.462Z,13.62
2017-11-14T10:59:45.010Z,14.93
2017-11-14T11:02:12.482Z,15.85
2017-11-14T11:04:41.440Z,12.10
2017-11-14T11:07:08.927Z,11.25
2017-11-14T11:09:36.384Z,19.00
2017-11-14T11:12:03.939Z,11.75
2017-11-14T11:14:32.175Z,14.77
2017-11-14T11:16:59.622Z,10.35
2017-11-14T11:19:27.079Z,17.92
2017-11-14T11:21:54.535Z,16.92
2017-11-14T11:24:22.003Z,17.62
2017-11-14T11:26:49.447Z,15.60
2017-11-14T11:29:16.950Z,19.70
2017-11-14T11:31:44.511Z,14.27
2017-11-14T11:34:12.018Z,15.75
2017-11-14T11:36:39.532Z,14.43
2017-11-14T11:39:07.087Z,18.20
2017-11-14T11:41:34.532Z,16.40
2017-11-14T11:44:02.082Z,17.55
2017-11-14T11:46:29.535Z,18.23
2017-11-14T11:48:56.994Z,13.30
2017-11-14T11:51:24.441Z,13.00
2017-11-14T11:53:51.895Z,19.67
2017-11-14T11:56:19.388Z,13.68
2017-11-14T11:58:46.854Z,15.52
2017-11-14T12:01:14.307Z,12.80
2017-11-14T12:03:42.546Z,19.25
2017-11-14T12:06:10.026Z,14.80
2017-11-14T12:08:37.484Z,17.25
2017-11-14T12:11:04.945Z,18.70
2017-11-14T12:13:32.496Z,17.35
2017-11-14T12:16:00.058Z,29.45
2017-11-14T12:18:27.519Z,17.83
2017-11-14T12:20:54.979Z,18.25
2017-11-14T12:23:22.439Z,23.25
2017-11-14T12:25:49.898Z,18.70
2017-11-14T12:28:17.449Z,14.18
2017-11-14T12:30:44.909Z,16.73
2017-11-14T12:33:12.363Z,17.48
2017-11-14T12:35:39.830Z,21.23
2017-11-14T12:38:07.291Z,14.30
2017-11-14T12:40:35.516Z,15.45
2017-11-14T12:43:02.974Z,19.75
2017-11-14T12:45:30.467Z,16.87
2017-11-14T12:47:57.914Z,13.82
2017-11-14T12:50:25.372Z,13.07
2017-11-14T12:52:52.936Z,13.25
2017-11-14T12:55:20.416Z,10.23
2017-11-14T12:57:48.632Z,18.65
2017-11-14T13:00:16.078Z,17.58
2017-11-14T13:02:43.536Z,12.68
2017-11-14T13:05:10.978Z,15.68
2017-11-14T13:07:38.487Z,19.37
2017-11-14T13:10:05.947Z,17.27
2017-11-14T13:12:33.416Z,16.35
2017-11-14T13:15:00.874Z,19.85
2017-11-14T13:17:28.419Z,14.07
2017-11-14T13:19:55.875Z,14.73
2017-11-14T13:22:23.342Z,16.98
2017-11-14T13:24:50.891Z,16.70
2017-11-14T13:27:18.351Z,15.00
2017-11-14T13:29:45.807Z,15.27
2017-11-14T13:32:13.267Z,12.60
2017-11-14T13:34:40.726Z,14.68
2017-11-14T13:37:08.194Z,17.98
2017-11-14T13:39:35.653Z,21.30
2017-11-14T13:42:03.111Z,15.95
2017-11-14T13:44:31.329Z,17.08
2017-11-14T13:46:58.830Z,18.45
2017-11-14T13:49:26.387Z,16.62
2017-11-14T13:51:53.861Z,19.75
2017-11-14T13:54:21.298Z,12.98
2017-11-14T13:56:48.784Z,16.12
2017-11-14T13:59:16.996Z,16.85
2017-11-14T14:01:44.451Z,15.20
2017-11-14T14:04:11.957Z,15.90
2017-11-14T14:06:39.412Z,21.25
2017-11-14T14:09:06.863Z,13.40
2017-11-14T14:11:34.403Z,15.85
2017-11-14T14:14:01.862Z,16.27
2017-11-14T14:16:29.414Z,19.12
2017-11-14T14:18:56.879Z,15.63
2017-11-14T14:21:24.453Z,14.18
2017-11-14T14:23:51.906Z,23.02
2017-11-14T14:26:19.363Z,19.50
2017-11-14T14:28:46.826Z,13.65
2017-11-14T14:31:14.289Z,18.30
2017-11-14T14:33:41.823Z,21.75
2017-11-14T14:36:09.274Z,20.50
2017-11-14T14:38:36.739Z,23.30
2017-11-14T14:41:04.184Z,29.12
2017-11-14T14:43:31.656Z,14.80
2017-11-14T14:45:59.206Z,16.90
2017-11-14T14:48:26.672Z,20.10
2017-11-14T14:50:54.119Z,20.85
2017-11-14T14:53:21.580Z,17.00
2017-11-14T14:55:49.138Z,21.15
2017-11-14T14:58:16.590Z,16.77
2017-11-14T15:00:44.061Z,20.12
2017-11-14T15:03:11.605Z,21.50
2017-11-14T15:05:39.066Z,19.65
2017-11-14T15:08:06.515Z,20.17
2017-11-14T15:10:33.975Z,22.75
2017-11-14T15:13:01.427Z,20.35
2017-11-14T15:15:28.994Z,17.17
2017-11-14T15:17:56.455Z,28.87
2017-11-14T15:20:23.919Z,21.00
2017-11-14T15:22:51.375Z,30.60
2017-11-14T15:25:18.831Z,28.25
2017-11-14T15:27:46.283Z,31.42
2017-11-14T15:30:13.748Z,32.17
2017-11-14T15:32:41.290Z,25.35
2017-11-14T15:35:08.746Z,33.40
2017-11-14T15:37:36.195Z,27.67
2017-11-14T15:40:03.654Z,30.23
2017-11-14T15:42:31.106Z,34.83
2017-11-14T15:44:58.607Z,33.42
2017-11-14T15:47:26.142Z,29.10
2017-11-14T15:49:53.592Z,33.60
2017-11-14T15:52:21.147Z,27.55
2017-11-14T15:54:48.595Z,28.05
2017-11-14T15:57:16.051Z,24.52
2017-11-14T15:59:43.523Z,26.00
2017-11-14T16:02:11.078Z,29.35
2017-11-14T16:04:38.548Z,32.40
2017-11-14T16:07:06.095Z,29.25
2017-11-14T16:09:33.548Z,37.38
2017-11-14T16:12:01.007Z,27.67
2017-11-14T16:14:28.462Z,24.00
2017-11-14T16:16:56.023Z,29.77
2017-11-14T16:19:23.463Z,30.12
2017-11-14T16:21:50.928Z,28.17
2017-11-14T16:24:18.402Z,37.42
2017-11-14T16:26:45.855Z,35.40
2017-11-14T16:29:13.301Z,43.08
2017-11-14T16:31:40.758Z,44.50
2017-11-14T16:34:08.211Z,32.50
2017-11-14T16:36:35.774Z,188.70
2017-11-14T16:39:03.231Z,63.20
2017-11-14T16:41:30.697Z,37.97
2017-11-14T16:43:58.143Z,45.88
2017-11-14T16:46:25.707Z,36.13
2017-11-14T16:48:53.150Z,37.88
2017-11-14T16:51:20.606Z,40.38
2017-11-14T16:53:48.062Z,42.22
2017-11-14T16:56:15.519Z,35.42
2017-11-14T16:58:42.993Z,44.17
2017-11-14T17:01:10.442Z,41.78
2017-11-14T17:03:37.890Z,42.33
2017-11-14T17:06:05.354Z,38.28
2017-11-14T17:08:32.817Z,40.08
2017-11-14T17:11:00.267Z,51.83
2017-11-14T17:13:27.732Z,41.55
2017-11-14T17:15:55.192Z,41.65
2017-11-14T17:18:22.641Z,40.00
2017-11-14T17:20:50.090Z,36.78
2017-11-14T17:23:17.536Z,39.30
2017-11-14T17:25:44.991Z,38.70
2017-11-14T17:28:12.448Z,37.05
2017-11-14T17:30:39.903Z,37.75
2017-11-14T17:33:07.357Z,34.42
2017-11-14T17:35:34.814Z,33.60
2017-11-14T17:38:02.307Z,39.17
2017-11-14T17:40:29.754Z,47.95
2017-11-14T17:42:57.206Z,40.80
2017-11-14T17:45:24.766Z,35.53
2017-11-14T17:47:52.224Z,38.15
2017-11-14T17:50:19.675Z,36.90
2017-11-14T17:52:47.242Z,38.17
2017-11-14T17:55:14.693Z,39.97
2017-11-14T17:57:42.153Z,36.13
2017-11-14T18:00:09.603Z,45.83
2017-11-14T18:02:37.059Z,40.80
2017-11-14T18:05:04.514Z,45.58
2017-11-14T18:07:31.986Z,43.83
2017-11-14T18:09:59.443Z,38.58
2017-11-14T18:12:26.899Z,35.33
2017-11-14T18:14:54.351Z,43.53
2017-11-14T18:17:21.813Z,41.50
2017-11-14T18:19:49.257Z,59.15
2017-11-14T18:22:16.758Z,55.45
2017-11-14T18:24:45.003Z,50.28
2017-11-14T18:27:12.460Z,55.17
2017-11-14T18:29:39.918Z,47.10
2017-11-14T18:32:07.367Z,51.80
2017-11-14T18:34:34.823Z,60.67
2017-11-14T18:37:02.278Z,53.92
2017-11-14T18:39:29.733Z,47.03
2017-11-14T18:41:57.189Z,55.03
2017-11-14T18:44:24.651Z,54.85
2017-11-14T18:46:52.115Z,49.60
2017-11-14T18:49:19.574Z,56.00
2017-11-14T18:51:47.032Z,66.85
2017-11-14T18:54:14.588Z,45.12
2017-11-14T18:56:42.150Z,60.35
2017-11-14T18:59:09.604Z,66.07
2017-11-14T19:01:37.060Z,54.72
2017-11-14T19:04:04.514Z,56.42
2017-11-14T19:06:31.970Z,65.15
2017-11-14T19:09:01.158Z,63.08
2017-11-14T19:11:28.719Z,85.38
2017-11-14T19:13:56.190Z,80.97
2017-11-14T19:16:23.643Z,79.85
2017-11-14T19:18:51.099Z,86.55
2017-11-14T19:21:18.564Z,95.20
2017-11-14T19:23:46.892Z,97.18
2017-11-14T19:26:14.345Z,78.12
2017-11-14T19:28:41.837Z,75.45
2017-11-14T19:31:09.295Z,67.85
2017-11-14T19:33:36.747Z,68.62
2017-11-14T19:36:04.202Z,76.37
2017-11-14T19:38:31.659Z,65.00
2017-11-14T19:40:59.126Z,59.90
2017-11-14T19:43:26.577Z,71.97
2017-11-14T19:45:54.032Z,67.62
2017-11-14T19:48:21.476Z,63.78
2017-11-14T19:50:48.945Z,76.72
2017-11-14T19:53:16.391Z,69.95
2017-11-14T19:55:43.852Z,57.72
2017-11-14T19:58:11.303Z,74.20
2017-11-14T20:00:38.763Z,69.62
2017-11-14T20:03:06.395Z,67.80
2017-11-14T20:05:33.886Z,53.25
2017-11-14T20:08:01.350Z,50.12
2017-11-14T20:10:28.794Z,49.13
2017-11-14T20:12:56.253Z,65.47
2017-11-14T20:15:23.713Z,71.95
2017-11-14T20:17:51.166Z,70.37
2017-11-14T20:20:18.611Z,70.47
2017-11-14T20:22:46.079Z,71.00
2017-11-14T20:25:13.533Z,72.18
2017-11-14T20:27:41.211Z,57.42
2017-11-14T20:30:10.166Z,64.90
2017-11-14T20:32:37.647Z,73.68
2017-11-14T20:35:05.107Z,82.25
2017-11-14T20:37:32.568Z,89.53
2017-11-14T20:40:00.018Z,85.28
2017-11-14T20:42:27.638Z,76.47
2017-11-14T20:44:55.085Z,77.32
2017-11-14T20:47:22.546Z,96.05
2017-11-14T20:49:50.002Z,83.75
2017-11-14T20:52:18.219Z,81.00
2017-11-14T20:54:45.667Z,63.15
2017-11-14T20:57:13.147Z,78.32
2017-11-14T20:59:40.595Z,84.13
2017-11-14T21:02:08.159Z,81.37
2017-11-14T21:04:35.614Z,80.65
2017-11-14T21:07:03.074Z,90.47
2017-11-14T21:09:30.627Z,81.35
2017-11-14T21:11:58.086Z,75.22
2017-11-14T21:14:25.543Z,51.22
2017-11-14T21:16:53.101Z,50.25
2017-11-14T21:19:20.560Z,68.50
2017-11-14T21:21:48.008Z,58.08
2017-11-14T21:24:15.474Z,53.67
2017-11-14T21:26:42.950Z,51.88
2017-11-14T21:29:10.396Z,57.42
2017-11-14T21:31:37.945Z,66.15
2017-11-14T21:34:05.407Z,80.22
2017-11-14T21:36:32.857Z,75.68
2017-11-14T21:39:00.318Z,75.12
2017-11-14T21:41:27.777Z,71.40
2017-11-14T21:43:55.234Z,68.50
2017-11-14T21:46:22.784Z,70.87
2017-11-14T21:48:50.270Z,73.95
2017-11-14T21:51:18.482Z,83.40
2017-11-14T21:53:45.934Z,73.03
2017-11-14T21:56:13.390Z,71.03
2017-11-14T21:58:40.848Z,67.43
2017-11-14T22:02:37.322Z,65.00
2017-11-14T22:05:04.774Z,86.55
2017-11-14T22:07:32.231Z,81.03
2017-11-14T22:09:59.796Z,71.10
2017-11-14T22:12:27.247Z,77.05
2017-11-14T22:14:54.703Z,71.82
2017-11-14T22:17:22.167Z,81.35
2017-11-14T22:19:49.626Z,59.22
2017-11-14T22:22:17.117Z,64.20
2017-11-14T22:24:45.337Z,65.53
2017-11-14T22:27:12.788Z,69.65
2017-11-14T22:29:40.250Z,71.82
2017-11-14T22:32:07.711Z,77.87
2017-11-14T22:34:35.163Z,78.20
2017-11-14T22:37:02.620Z,86.65
2017-11-14T22:39:30.078Z,95.68
2017-11-14T22:41:57.533Z,77.95
2017-11-14T22:44:24.990Z,77.28
2017-11-14T22:46:52.450Z,83.53
2017-11-14T22:49:19.919Z,68.82
2017-11-14T22:51:47.377Z,89.07
2017-11-14T22:54:14.936Z,81.55
2017-11-14T22:56:42.402Z,92.70
2017-11-14T22:59:09.977Z,81.90
2017-11-14T23:01:37.434Z,89.05
2017-11-14T23:04:05.654Z,86.32
2017-11-14T23:06:33.113Z,92.80
2017-11-14T23:09:00.569Z,86.30
2017-11-14T23:11:28.031Z,83.82
2017-11-14T23:13:55.486Z,90.65
2017-11-14T23:16:22.934Z,98.22
2017-11-14T23:18:50.394Z,99.85
2017-11-14T23:21:17.861Z,74.85
2017-11-14T23:23:45.306Z,69.35
2017-11-14T23:26:12.791Z,92.62
2017-11-14T23:28:40.241Z,91.82
2017-11-14T23:31:07.701Z,82.07
2017-11-14T23:33:35.157Z,67.25
2017-11-14T23:36:02.605Z,65.62
2017-11-14T23:38:30.067Z,72.10
2017-11-14T23:40:57.519Z,54.92
2017-11-14T23:43:24.983Z,52.17
2017-11-14T23:45:52.439Z,63.35
2017-11-14T23:48:20.003Z,59.08
2017-11-14T23:50:47.459Z,52.42
2017-11-14T23:53:14.926Z,56.67
2017-11-14T23:55:42.378Z,57.03
2017-11-14T23:58:09.932Z,66.65
